createdAt,value
2023-08-17T00:00:15.242Z,97236.06
2023-08-17T00:02:24.379Z,97233.03
2023-08-17T00:04:32.662Z,97232.72
2023-08-17T00:06:40.915Z,97233.06
2023-08-17T00:08:49.112Z,97229.22
2023-08-17T00:10:59.819Z,97223.66
2023-08-17T00:13:08.491Z,97222.81
2023-08-17T00:15:16.874Z,97226.19
2023-08-17T00:17:25.593Z,97229.25
2023-08-17T00:19:34.059Z,97232.47
2023-08-17T00:21:42.240Z,97223.34
2023-08-17T00:23:50.536Z,97219.97
2023-08-17T00:26:01.586Z,97222.16
2023-08-17T00:28:10.136Z,97223.88
2023-08-17T00:30:18.355Z,97220.28
2023-08-17T00:32:26.724Z,97225.53
2023-08-17T00:34:34.847Z,97229.91
2023-08-17T00:36:44.743Z,97225.19
2023-08-17T00:38:53.334Z,97221.31
2023-08-17T00:41:04.549Z,97223.84
2023-08-17T00:43:12.873Z,97218.09
2023-08-17T00:45:21.924Z,97222.66
2023-08-17T00:47:30.538Z,97227.72
2023-08-17T00:49:39.541Z,97239.19
2023-08-17T00:51:47.773Z,97240.19
2023-08-17T00:53:58.735Z,97241.22
2023-08-17T00:56:10.101Z,97247.44
2023-08-17T00:58:19.412Z,97254.69
2023-08-17T01:00:29.180Z,97254.88
2023-08-17T01:02:39.916Z,97247.28
2023-08-17T01:04:48.604Z,97251.50
2023-08-17T01:06:56.860Z,97249.13
2023-08-17T01:09:05.269Z,97252.16
2023-08-17T01:11:24.549Z,97269.03
2023-08-17T01:13:42.756Z,97278.16
2023-08-17T01:15:58.633Z,97275.78
2023-08-17T01:18:20.600Z,97278.50
2023-08-17T01:20:29.924Z,97276.28
2023-08-17T01:22:41.321Z,97277.13
2023-08-17T01:24:58.399Z,97284.56
2023-08-17T01:27:07.042Z,97280.81
2023-08-17T01:29:15.748Z,97290.28
2023-08-17T01:31:33.111Z,97292.97
2023-08-17T01:33:47.141Z,97281.84
2023-08-17T01:36:05.290Z,97280.16
2023-08-17T01:38:18.785Z,97274.41
2023-08-17T01:40:31.094Z,97269.88
2023-08-17T01:42:40.951Z,97265.50
2023-08-17T01:44:49.358Z,97253.50
2023-08-17T01:47:00.217Z,97257.53
2023-08-17T01:49:08.523Z,97254.34
2023-08-17T01:51:22.564Z,97256.03
2023-08-17T01:53:30.978Z,97259.41
2023-08-17T01:55:42.003Z,97255.00
2023-08-17T01:57:50.163Z,97254.00
2023-08-17T01:59:59.172Z,97260.41
2023-08-17T02:02:09.948Z,97255.88
2023-08-17T02:04:19.267Z,97251.81
2023-08-17T02:06:27.578Z,97242.91
2023-08-17T02:08:38.047Z,97251.66
2023-08-17T02:10:48.999Z,97234.97
2023-08-17T02:13:02.113Z,97231.78
2023-08-17T02:15:17.721Z,97220.81
2023-08-17T02:17:26.905Z,97227.56
2023-08-17T02:19:35.400Z,97224.53
2023-08-17T02:21:43.779Z,97222.00
2023-08-17T02:23:52.260Z,97224.19
2023-08-17T02:26:03.382Z,97220.97
2023-08-17T02:28:13.373Z,97221.66
2023-08-17T02:30:21.677Z,97215.56
2023-08-17T02:32:29.917Z,97218.28
2023-08-17T02:34:38.503Z,97211.53
2023-08-17T02:36:47.115Z,97213.06
2023-08-17T02:38:55.191Z,97211.06
2023-08-17T02:41:06.219Z,97209.84
2023-08-17T02:43:14.427Z,97205.13
2023-08-17T02:45:22.895Z,97212.38
2023-08-17T02:47:31.059Z,97211.88
2023-08-17T02:49:39.665Z,97204.47
2023-08-17T02:51:47.857Z,97208.53
2023-08-17T02:53:56.111Z,97210.72
2023-08-17T02:56:07.608Z,97204.97
2023-08-17T02:58:15.804Z,97204.31
2023-08-17T03:00:24.023Z,97199.75
2023-08-17T03:02:32.287Z,97203.44
2023-08-17T03:04:40.565Z,97200.59
2023-08-17T03:06:48.731Z,97196.19
2023-08-17T03:08:57.082Z,97198.22
2023-08-17T03:11:08.780Z,97196.03
2023-08-17T03:13:16.942Z,97196.38
2023-08-17T03:15:25.233Z,97194.88
2023-08-17T03:17:34.034Z,97185.91
2023-08-17T03:19:39.636Z,97188.78
2023-08-17T03:21:48.116Z,97185.25
2023-08-17T03:23:56.869Z,97181.22
2023-08-17T03:26:07.736Z,97176.31
2023-08-17T03:28:16.006Z,97177.00
2023-08-17T03:30:24.541Z,97176.63
2023-08-17T03:32:33.007Z,97176.13
2023-08-17T03:34:43.089Z,97178.34
2023-08-17T03:36:53.207Z,97181.88
2023-08-17T03:39:01.775Z,97181.53
2023-08-17T03:41:13.612Z,97192.81
2023-08-17T03:43:22.012Z,97202.28
2023-08-17T03:45:30.553Z,97208.50
2023-08-17T03:47:38.757Z,97218.59
2023-08-17T03:49:47.899Z,97216.28
2023-08-17T03:51:55.941Z,97217.78
2023-08-17T03:54:04.126Z,97228.38
2023-08-17T03:56:16.237Z,97229.06
2023-08-17T03:58:24.731Z,97244.59
2023-08-17T04:00:32.876Z,97249.66
2023-08-17T04:02:41.748Z,97260.09
2023-08-17T04:04:52.111Z,97263.44
2023-08-17T04:07:00.220Z,97260.59
2023-08-17T04:09:09.241Z,97251.66
2023-08-17T04:11:23.107Z,97252.66
2023-08-17T04:13:32.126Z,97258.22
2023-08-17T04:15:40.315Z,97252.00
2023-08-17T04:17:48.650Z,97253.50
2023-08-17T04:19:56.075Z,97250.97
2023-08-17T04:22:04.474Z,97249.63
2023-08-17T04:24:13.779Z,97251.50
2023-08-17T04:26:25.136Z,97249.97
2023-08-17T04:28:33.987Z,97242.22
2023-08-17T04:30:42.623Z,97247.47
2023-08-17T04:32:54.071Z,97246.13
2023-08-17T04:35:02.941Z,97244.06
2023-08-17T04:37:11.549Z,97241.38
2023-08-17T04:39:20.479Z,97246.94
2023-08-17T04:41:32.982Z,97255.19
2023-08-17T04:43:44.428Z,97261.41
2023-08-17T04:45:54.374Z,97250.97
2023-08-17T04:48:02.760Z,97256.88
2023-08-17T04:50:17.585Z,97250.47
2023-08-17T04:52:26.669Z,97255.19
2023-08-17T04:54:35.380Z,97258.88
2023-08-17T04:56:46.343Z,97259.41
2023-08-17T04:58:55.294Z,97267.31
2023-08-17T05:01:06.718Z,97265.63
2023-08-17T05:03:24.173Z,97280.31
2023-08-17T05:05:40.617Z,97283.19
2023-08-17T05:07:51.728Z,97301.25
2023-08-17T05:10:00.209Z,97313.69
2023-08-17T05:12:12.476Z,97326.84
2023-08-17T05:14:20.950Z,97335.25
2023-08-17T05:16:29.110Z,97330.38
2023-08-17T05:18:38.598Z,97340.19
2023-08-17T05:20:47.317Z,97339.34
2023-08-17T05:22:56.000Z,97342.56
2023-08-17T05:25:06.014Z,97363.50
2023-08-17T05:27:19.461Z,97372.91
2023-08-17T05:29:28.081Z,97384.34
2023-08-17T05:31:36.413Z,97390.59
2023-08-17T05:33:44.762Z,97377.97
2023-08-17T05:35:58.271Z,97380.03
2023-08-17T05:38:08.466Z,97397.09
2023-08-17T05:40:19.022Z,97420.72
2023-08-17T05:42:30.092Z,97429.50
2023-08-17T05:44:38.479Z,97455.16
2023-08-17T05:46:46.948Z,97478.28
2023-08-17T05:48:55.464Z,97502.75
2023-08-17T05:51:03.660Z,97522.00
2023-08-17T05:53:11.837Z,97524.69
2023-08-17T05:55:20.126Z,97517.44
2023-08-17T05:57:30.715Z,97521.44
2023-08-17T05:59:42.091Z,97511.69
2023-08-17T06:01:50.185Z,97494.59
2023-08-17T06:03:55.475Z,97492.22
2023-08-17T06:06:03.765Z,97504.94
2023-08-17T06:08:12.005Z,97522.00
2023-08-17T06:10:20.225Z,97512.50
2023-08-17T06:12:31.117Z,97502.47
2023-08-17T06:14:39.150Z,97480.38
2023-08-17T06:16:47.413Z,97471.94
2023-08-17T06:18:55.494Z,97483.28
2023-08-17T06:21:03.820Z,97503.25
2023-08-17T06:23:12.145Z,97502.78
2023-08-17T06:25:20.496Z,97528.63
2023-08-17T06:27:31.646Z,97562.25
2023-08-17T06:29:39.872Z,97588.47
2023-08-17T06:31:48.193Z,97595.19
2023-08-17T06:33:56.276Z,97617.97
2023-08-17T06:36:04.508Z,97618.63
2023-08-17T06:38:13.406Z,97611.94
2023-08-17T06:40:21.626Z,97611.91
2023-08-17T06:42:32.814Z,97634.38
2023-08-17T06:44:42.027Z,97635.38
2023-08-17T06:46:50.482Z,97639.56
2023-08-17T06:48:58.619Z,97647.00
2023-08-17T06:51:06.992Z,97645.97
2023-08-17T06:53:15.399Z,97652.50
2023-08-17T06:55:23.622Z,97653.34
2023-08-17T06:57:34.531Z,97647.59
2023-08-17T06:59:42.820Z,97642.34
2023-08-17T07:01:51.286Z,97650.97
2023-08-17T07:04:00.114Z,97655.00
2023-08-17T07:06:08.280Z,97634.19
2023-08-17T07:08:16.726Z,97605.13
2023-08-17T07:10:25.186Z,97607.03
2023-08-17T07:12:36.581Z,97625.13
2023-08-17T07:14:44.944Z,97625.44
2023-08-17T07:16:53.852Z,97642.63
2023-08-17T07:19:02.331Z,97651.25
2023-08-17T07:21:10.632Z,97654.28
2023-08-17T07:23:18.659Z,97658.09
2023-08-17T07:25:27.050Z,97674.19
2023-08-17T07:27:38.093Z,97674.72
2023-08-17T07:29:46.689Z,97676.97
2023-08-17T07:31:55.816Z,97669.81
2023-08-17T07:34:04.324Z,97656.84
2023-08-17T07:36:13.973Z,97664.94
2023-08-17T07:38:23.589Z,97666.41
2023-08-17T07:40:31.782Z,97680.28
2023-08-17T07:42:40.626Z,97663.88
2023-08-17T07:44:49.106Z,97656.47
2023-08-17T07:46:57.132Z,97671.38
2023-08-17T07:49:08.800Z,97660.44
2023-08-17T07:51:26.158Z,97658.53
2023-08-17T07:53:34.505Z,97645.22
2023-08-17T07:55:42.873Z,97637.59
2023-08-17T07:57:54.326Z,97642.97
2023-08-17T08:00:02.610Z,97660.59
2023-08-17T08:02:16.356Z,97664.16
2023-08-17T08:04:24.708Z,97672.53
2023-08-17T08:06:34.325Z,97681.28
2023-08-17T08:08:42.892Z,97688.66
2023-08-17T08:10:51.109Z,97687.06
2023-08-17T08:13:02.541Z,97697.34
2023-08-17T08:15:12.021Z,97694.78
2023-08-17T08:17:20.925Z,97702.28
2023-08-17T08:19:28.939Z,97695.25
2023-08-17T08:21:37.690Z,97702.97
2023-08-17T08:23:45.938Z,97691.97
2023-08-17T08:25:54.072Z,97700.06
2023-08-17T08:28:04.700Z,97695.50
2023-08-17T08:30:13.174Z,97687.25
2023-08-17T08:32:21.426Z,97684.16
2023-08-17T08:34:29.384Z,97680.03
2023-08-17T08:36:40.176Z,97673.69
2023-08-17T08:38:48.313Z,97679.78
2023-08-17T08:40:56.447Z,97680.09
2023-08-17T08:43:07.717Z,97683.78
2023-08-17T08:45:15.894Z,97681.31
2023-08-17T08:47:26.048Z,97685.81
2023-08-17T08:49:41.406Z,97682.19
2023-08-17T08:51:54.802Z,97682.66
2023-08-17T08:54:09.369Z,97682.06
2023-08-17T08:56:20.252Z,97675.22
2023-08-17T08:58:33.658Z,97678.69
2023-08-17T09:00:40.031Z,97680.88
2023-08-17T09:02:48.497Z,97676.16
2023-08-17T09:04:57.102Z,97676.09
2023-08-17T09:07:07.542Z,97670.78
2023-08-17T09:09:19.228Z,97669.59
2023-08-17T09:11:29.675Z,97677.50
2023-08-17T09:13:40.257Z,97672.44
2023-08-17T09:15:48.359Z,97669.00
2023-08-17T09:17:56.727Z,97675.84
2023-08-17T09:20:04.975Z,97673.38
2023-08-17T09:22:12.976Z,97678.66
2023-08-17T09:24:21.043Z,97680.53
2023-08-17T09:26:29.569Z,97675.69
2023-08-17T09:28:43.390Z,97673.19
2023-08-17T09:30:56.679Z,97676.81
2023-08-17T09:33:06.529Z,97682.44
2023-08-17T09:35:14.652Z,97683.25
2023-08-17T09:37:22.904Z,97688.38
2023-08-17T09:39:32.421Z,97697.91
2023-08-17T09:41:44.950Z,97704.50
2023-08-17T09:43:55.618Z,97703.09
2023-08-17T09:46:04.642Z,97697.66
2023-08-17T09:48:19.214Z,97722.16
2023-08-17T09:50:27.507Z,97712.06
2023-08-17T09:52:35.498Z,97684.28
2023-08-17T09:54:46.035Z,97697.00
2023-08-17T09:56:55.615Z,97695.25
2023-08-17T09:59:08.458Z,97702.94
2023-08-17T10:01:17.967Z,97717.22
2023-08-17T10:03:27.546Z,97708.25
2023-08-17T10:05:45.584Z,97701.47
2023-08-17T10:08:05.860Z,97698.88
2023-08-17T10:10:14.706Z,97688.47
2023-08-17T10:12:30.607Z,97694.56
2023-08-17T10:14:48.262Z,97694.75
2023-08-17T10:17:03.448Z,97696.03
2023-08-17T10:19:25.161Z,97717.66
2023-08-17T10:21:41.020Z,97729.16
2023-08-17T10:24:08.066Z,97719.38
2023-08-17T10:26:25.483Z,97708.38
2023-08-17T10:28:36.616Z,97710.88
2023-08-17T10:30:49.567Z,97709.19
2023-08-17T10:32:58.551Z,97720.69
2023-08-17T10:35:11.234Z,97715.56
2023-08-17T10:37:21.142Z,97702.22
2023-08-17T10:39:30.356Z,97697.38
2023-08-17T10:41:50.833Z,97695.25
2023-08-17T10:44:00.053Z,97685.88
2023-08-17T10:46:23.011Z,97678.38
2023-08-17T10:48:37.452Z,97676.03
2023-08-17T10:51:03.606Z,97679.81
2023-08-17T10:53:14.478Z,97685.03
2023-08-17T10:55:41.177Z,97672.66
2023-08-17T10:57:49.153Z,97669.84
2023-08-17T11:00:28.672Z,97657.78
2023-08-17T11:02:37.368Z,97654.88
2023-08-17T11:04:58.179Z,97664.00
2023-08-17T11:07:06.917Z,97651.47
2023-08-17T11:09:20.679Z,97665.13
2023-08-17T11:11:28.943Z,97650.13
2023-08-17T11:13:39.225Z,97655.00
2023-08-17T11:15:46.264Z,97631.72
2023-08-17T11:17:57.309Z,97622.28
2023-08-17T11:20:05.744Z,97647.66
2023-08-17T11:22:14.110Z,97636.84
2023-08-17T11:24:20.169Z,97634.47
2023-08-17T11:26:28.898Z,97651.00
2023-08-17T11:30:49.259Z,97642.72
2023-08-17T11:33:01.145Z,97644.72
2023-08-17T11:35:10.147Z,97632.50
2023-08-17T11:37:21.897Z,97617.53
2023-08-17T11:39:30.244Z,97631.75
2023-08-17T11:41:39.215Z,97636.75
2023-08-17T11:43:49.812Z,97644.31
2023-08-17T11:45:56.710Z,97627.66
2023-08-17T11:48:08.810Z,97635.31
2023-08-17T11:50:21.024Z,97623.91
2023-08-17T11:52:30.450Z,97641.22
2023-08-17T11:54:38.396Z,97639.28
2023-08-17T11:56:46.821Z,97621.44
2023-08-17T11:58:55.000Z,97636.06
2023-08-17T12:01:03.324Z,97643.09
2023-08-17T12:03:17.955Z,97635.88
2023-08-17T12:05:29.032Z,97646.84
2023-08-17T12:07:37.573Z,97641.22
2023-08-17T12:09:45.936Z,97635.28
2023-08-17T12:12:02.708Z,97647.44
2023-08-17T12:14:15.753Z,97648.03
2023-08-17T12:16:25.079Z,97648.56
2023-08-17T12:18:36.784Z,97636.56
2023-08-17T12:20:46.597Z,97637.66
2023-08-17T12:22:54.800Z,97626.59
2023-08-17T12:25:02.787Z,97622.78
2023-08-17T12:27:10.862Z,97630.59
2023-08-17T12:29:19.228Z,97628.50
2023-08-17T12:31:27.416Z,97622.75
2023-08-17T12:33:38.241Z,97621.09
2023-08-17T12:35:46.425Z,97616.50
2023-08-17T12:37:55.627Z,97614.81
2023-08-17T12:40:05.186Z,97612.56
2023-08-17T12:42:13.383Z,97597.38
2023-08-17T12:44:21.553Z,97607.72
2023-08-17T12:46:34.162Z,97603.53
2023-08-17T12:48:45.127Z,97603.34
2023-08-17T12:50:53.460Z,97605.88
2023-08-17T12:53:01.466Z,97619.66
2023-08-17T12:55:10.303Z,97627.81
2023-08-17T12:57:18.475Z,97639.16
2023-08-17T12:59:26.592Z,97654.28
2023-08-17T13:01:34.838Z,97638.06
2023-08-17T13:03:45.494Z,97639.41
2023-08-17T13:05:54.006Z,97640.97
2023-08-17T13:08:02.205Z,97643.25
2023-08-17T13:10:11.605Z,97647.09
2023-08-17T13:12:19.901Z,97660.50
2023-08-17T13:14:25.559Z,97674.97
2023-08-17T13:16:33.824Z,97677.88
2023-08-17T13:18:42.135Z,97687.84
2023-08-17T13:20:53.050Z,97682.59
2023-08-17T13:23:01.072Z,97670.63
2023-08-17T13:25:09.933Z,97642.25
2023-08-17T13:27:18.080Z,97630.41
2023-08-17T13:29:23.460Z,97625.22
2023-08-17T13:31:31.731Z,97612.78
2023-08-17T13:33:37.577Z,97619.97
2023-08-17T13:35:45.941Z,97622.84
2023-08-17T13:37:58.979Z,97624.94
2023-08-17T13:40:08.211Z,97632.38
2023-08-17T13:42:16.499Z,97633.22
2023-08-17T13:44:24.882Z,97629.78
2023-08-17T13:46:33.439Z,97630.56
2023-08-17T13:48:43.163Z,97617.16
2023-08-17T13:50:51.764Z,97621.97
2023-08-17T13:53:03.673Z,97609.56
2023-08-17T13:55:12.776Z,97590.00
2023-08-17T13:57:20.928Z,97593.88
2023-08-17T13:59:31.206Z,97585.50
2023-08-17T14:01:39.447Z,97577.66
2023-08-17T14:03:47.863Z,97577.28
2023-08-17T14:05:56.584Z,97581.81
2023-08-17T14:08:09.228Z,97572.22
2023-08-17T14:10:32.985Z,97584.03
2023-08-17T14:12:45.522Z,97584.72
2023-08-17T14:14:53.552Z,97582.50
2023-08-17T14:17:01.461Z,97574.00
2023-08-17T14:19:09.649Z,97569.81
2023-08-17T14:21:17.771Z,97575.34
2023-08-17T14:23:28.351Z,97561.00
2023-08-17T14:25:36.494Z,97566.91
2023-08-17T14:27:44.805Z,97567.16
2023-08-17T14:29:53.014Z,97572.88
2023-08-17T14:32:01.290Z,97570.53
2023-08-17T14:34:09.586Z,97566.69
2023-08-17T14:36:20.845Z,97562.97
2023-08-17T14:38:32.470Z,97557.69
2023-08-17T14:40:42.875Z,97544.38
2023-08-17T14:42:54.416Z,97548.78
2023-08-17T14:47:15.632Z,97552.09
2023-08-17T14:49:29.601Z,97553.69
2023-08-17T14:51:42.383Z,97552.97
2023-08-17T14:53:50.553Z,97548.38
2023-08-17T14:56:01.760Z,97548.16
2023-08-17T14:58:10.036Z,97534.31
2023-08-17T15:00:18.547Z,97544.44
2023-08-17T15:02:26.971Z,97539.19
2023-08-17T15:04:39.235Z,97535.41
2023-08-17T15:06:47.437Z,97531.72
2023-08-17T15:08:58.990Z,97535.13
2023-08-17T15:11:07.253Z,97536.16
2023-08-17T15:13:15.561Z,97532.66
2023-08-17T15:15:24.010Z,97542.13
2023-08-17T15:17:32.453Z,97534.56
2023-08-17T15:19:41.440Z,97527.34
2023-08-17T15:21:49.933Z,97534.78
2023-08-17T15:24:02.114Z,97531.03
2023-08-17T15:26:12.048Z,97534.28
2023-08-17T15:28:20.130Z,97523.66
2023-08-17T15:30:28.544Z,97524.31
2023-08-17T15:32:36.819Z,97520.63
2023-08-17T15:34:45.057Z,97515.97
2023-08-17T15:36:53.423Z,97509.81
2023-08-17T15:39:04.508Z,97499.00
2023-08-17T15:41:12.832Z,97503.06
2023-08-17T15:43:20.966Z,97487.47
2023-08-17T15:45:29.469Z,97485.41
2023-08-17T15:47:38.304Z,97478.75
2023-08-17T15:49:46.859Z,97470.53
2023-08-17T15:51:54.957Z,97482.34
2023-08-17T15:54:05.847Z,97484.19
2023-08-17T15:56:14.242Z,97483.66
2023-08-17T15:58:22.380Z,97493.06
2023-08-17T16:00:30.853Z,97500.22
2023-08-17T16:02:39.248Z,97512.59
2023-08-17T16:04:47.799Z,97524.59
2023-08-17T16:06:53.701Z,97534.41
2023-08-17T16:09:01.954Z,97549.41
2023-08-17T16:11:13.249Z,97555.72
2023-08-17T16:13:21.478Z,97567.72
2023-08-17T16:15:29.713Z,97563.31
2023-08-17T16:17:37.979Z,97566.88
2023-08-17T16:19:46.428Z,97567.47
2023-08-17T16:21:54.555Z,97569.25
2023-08-17T16:24:02.505Z,97576.09
2023-08-17T16:26:13.274Z,97564.88
2023-08-17T16:28:21.371Z,97564.72
2023-08-17T16:30:29.876Z,97570.03
2023-08-17T16:32:38.164Z,97567.78
2023-08-17T16:34:48.155Z,97557.47
2023-08-17T16:36:56.064Z,97560.06
2023-08-17T16:39:04.267Z,97559.53
2023-08-17T16:41:14.936Z,97550.81
2023-08-17T16:43:23.930Z,97552.13
2023-08-17T16:45:32.509Z,97554.28
2023-08-17T16:47:40.931Z,97550.00
2023-08-17T16:49:49.431Z,97552.72
2023-08-17T16:51:57.554Z,97555.31
2023-08-17T16:54:05.614Z,97552.63
2023-08-17T16:56:16.750Z,97558.03
2023-08-17T16:58:24.752Z,97557.25
2023-08-17T17:00:33.443Z,97561.38
2023-08-17T17:02:38.848Z,97556.91
2023-08-17T17:04:48.942Z,97562.81
2023-08-17T17:06:56.980Z,97563.59
2023-08-17T17:09:06.398Z,97559.88
2023-08-17T17:11:17.393Z,97560.97
2023-08-17T17:13:25.339Z,97565.06
2023-08-17T17:15:33.590Z,97570.19
2023-08-17T17:17:41.987Z,97575.41
2023-08-17T17:19:50.994Z,97578.31
2023-08-17T17:21:59.157Z,97575.56
2023-08-17T17:24:08.378Z,97580.63
2023-08-17T17:26:21.619Z,97580.69
2023-08-17T17:28:31.535Z,97576.06
2023-08-17T17:30:39.789Z,97586.94
2023-08-17T17:32:48.149Z,97588.63
2023-08-17T17:34:57.889Z,97585.47
2023-08-17T17:37:06.201Z,97596.66
2023-08-17T17:39:14.526Z,97599.47
2023-08-17T17:41:25.564Z,97594.34
2023-08-17T17:43:33.456Z,97588.16
2023-08-17T17:45:41.812Z,97579.59
2023-08-17T17:47:49.996Z,97580.47
2023-08-17T17:49:58.346Z,97578.47
2023-08-17T17:52:06.806Z,97575.09
2023-08-17T17:54:14.909Z,97572.03
2023-08-17T17:56:40.662Z,97563.31
2023-08-17T17:58:48.917Z,97557.59
2023-08-17T18:00:57.790Z,97563.41
2023-08-17T18:03:12.325Z,97554.31
2023-08-17T18:05:23.010Z,97552.56
2023-08-17T18:07:32.606Z,97550.59
2023-08-17T18:09:41.008Z,97554.72
2023-08-17T18:11:51.549Z,97534.03
2023-08-17T18:13:57.429Z,97544.59
2023-08-17T18:16:05.578Z,97531.97
2023-08-17T18:18:13.962Z,97530.09
2023-08-17T18:20:19.640Z,97524.75
2023-08-17T18:22:28.156Z,97522.81
2023-08-17T18:24:33.998Z,97525.50
2023-08-17T18:26:42.147Z,97531.31
2023-08-17T18:28:52.787Z,97526.63
2023-08-17T18:31:01.360Z,97523.44
2023-08-17T18:33:09.569Z,97526.66
2023-08-17T18:35:15.135Z,97513.94
2023-08-17T18:37:23.376Z,97509.75
2023-08-17T18:39:31.350Z,97519.28
2023-08-17T18:41:39.700Z,97510.50
2023-08-17T18:43:47.888Z,97500.75
2023-08-17T18:45:59.843Z,97500.66
2023-08-17T18:48:09.466Z,97505.94
2023-08-17T18:50:17.818Z,97490.50
2023-08-17T18:52:28.098Z,97491.84
2023-08-17T18:54:37.045Z,97490.72
2023-08-17T18:56:45.259Z,97501.50
2023-08-17T18:58:53.752Z,97499.50
2023-08-17T19:01:04.675Z,97495.22
2023-08-17T19:03:12.823Z,97500.75
2023-08-17T19:05:21.334Z,97502.03
2023-08-17T19:07:30.000Z,97492.94
2023-08-17T19:09:38.549Z,97490.97
2023-08-17T19:11:46.936Z,97492.63
2023-08-17T19:13:55.326Z,97498.94
2023-08-17T19:16:06.477Z,97502.19
2023-08-17T19:18:15.108Z,97497.66
2023-08-17T19:20:23.517Z,97490.09
2023-08-17T19:22:31.690Z,97481.34
2023-08-17T19:24:39.740Z,97481.53
2023-08-17T19:26:47.754Z,97477.34
2023-08-17T19:28:55.782Z,97476.13
2023-08-17T19:31:06.262Z,97476.91
2023-08-17T19:33:14.577Z,97478.00
2023-08-17T19:35:20.184Z,97488.78
2023-08-17T19:37:31.171Z,97498.41
2023-08-17T19:39:41.043Z,97497.06
2023-08-17T19:41:49.216Z,97503.00
2023-08-17T19:43:57.450Z,97493.53
2023-08-17T19:46:08.216Z,97494.81
2023-08-17T19:48:16.420Z,97490.91
2023-08-17T19:50:24.606Z,97486.22
2023-08-17T19:52:32.822Z,97504.47
2023-08-17T19:54:43.226Z,97535.00
2023-08-17T19:56:53.135Z,97548.25
2023-08-17T19:59:02.010Z,97568.78
2023-08-17T20:01:13.440Z,97581.50
2023-08-17T20:03:29.474Z,97593.28
2023-08-17T20:05:38.240Z,97593.50
2023-08-17T20:07:47.087Z,97612.47
2023-08-17T20:09:58.264Z,97609.44
2023-08-17T20:12:08.816Z,97596.41
2023-08-17T20:14:18.488Z,97581.19
2023-08-17T20:16:34.056Z,97566.28
2023-08-17T20:18:42.931Z,97561.22
2023-08-17T20:20:57.097Z,97565.50
2023-08-17T20:23:05.963Z,97571.28
2023-08-17T20:25:15.926Z,97556.25
2023-08-17T20:27:24.269Z,97561.69
2023-08-17T20:29:32.755Z,97567.50
2023-08-17T20:31:56.504Z,97560.72
2023-08-17T20:34:06.562Z,97555.47
2023-08-17T20:36:16.517Z,97557.53
2023-08-17T20:38:29.016Z,97547.03
2023-08-17T20:40:47.464Z,97555.34
2023-08-17T20:42:55.814Z,97561.75
2023-08-17T20:45:03.943Z,97562.47
2023-08-17T20:47:15.188Z,97552.34
2023-08-17T20:49:23.388Z,97555.88
2023-08-17T20:51:31.781Z,97564.19
2023-08-17T20:54:06.267Z,97562.66
2023-08-17T20:56:14.587Z,97555.09
2023-08-17T20:58:32.362Z,97545.13
2023-08-17T21:00:41.300Z,97541.38
2023-08-17T21:05:31.689Z,97552.91
2023-08-17T21:07:43.206Z,97561.84
2023-08-17T21:09:51.989Z,97567.13
2023-08-17T21:12:03.427Z,97568.31
2023-08-17T21:14:25.252Z,97573.22
2023-08-17T21:16:45.630Z,97580.81
2023-08-17T21:19:04.481Z,97568.69
2023-08-17T21:21:13.575Z,97559.88
2023-08-17T21:23:25.907Z,97576.94
2023-08-17T21:25:38.362Z,97579.81
2023-08-17T21:28:05.389Z,97581.50
2023-08-17T21:30:23.681Z,97590.13
2023-08-17T21:32:31.929Z,97595.19
2023-08-17T21:34:45.278Z,97599.78
2023-08-17T21:37:13.656Z,97592.50
2023-08-17T21:39:26.443Z,97595.03
2023-08-17T21:41:32.036Z,97605.50
2023-08-17T21:43:44.084Z,97608.38
2023-08-17T21:45:52.256Z,97608.06
2023-08-17T21:48:05.635Z,97605.16
2023-08-17T21:50:18.232Z,97603.16
2023-08-17T21:52:35.149Z,97608.56
2023-08-17T21:54:46.082Z,97609.06
2023-08-17T21:56:54.356Z,97607.84
2023-08-17T21:59:06.798Z,97612.06
2023-08-17T22:01:15.445Z,97608.16
2023-08-17T22:03:27.629Z,97608.53
2023-08-17T22:05:41.865Z,97612.06
2023-08-17T22:07:50.068Z,97620.50
2023-08-17T22:09:58.571Z,97619.34
2023-08-17T22:12:09.933Z,97612.56
2023-08-17T22:14:28.243Z,97608.69
2023-08-17T22:16:38.489Z,97610.53
2023-08-17T22:18:46.861Z,97609.50
2023-08-17T22:21:02.132Z,97611.72
2023-08-17T22:23:10.296Z,97617.13
2023-08-17T22:25:18.645Z,97611.00
2023-08-17T22:27:28.822Z,97608.97
2023-08-17T22:29:37.374Z,97616.56
2023-08-17T22:31:46.361Z,97613.50
2023-08-17T22:33:54.488Z,97618.06
2023-08-17T22:36:06.602Z,97621.09
2023-08-17T22:38:16.011Z,97616.16
2023-08-17T22:40:24.198Z,97623.59
2023-08-17T22:42:32.518Z,97609.38
2023-08-17T22:44:40.857Z,97609.06
2023-08-17T22:46:51.266Z,97616.88
2023-08-17T22:49:01.165Z,97611.44
2023-08-17T22:51:15.245Z,97616.16
2023-08-17T22:53:24.822Z,97609.75
2023-08-17T22:55:33.154Z,97614.53
2023-08-17T22:57:42.189Z,97611.97
2023-08-17T22:59:47.735Z,97607.88
2023-08-17T23:01:55.844Z,97600.28
2023-08-17T23:04:07.374Z,97591.47
2023-08-17T23:06:18.594Z,97593.63
2023-08-17T23:08:28.947Z,97589.69
2023-08-17T23:10:42.833Z,97595.44
2023-08-17T23:12:54.672Z,97595.75
2023-08-17T23:15:03.029Z,97593.41
2023-08-17T23:17:15.010Z,97596.28
2023-08-17T23:19:23.311Z,97587.00
2023-08-17T23:21:34.807Z,97583.28
2023-08-17T23:23:44.415Z,97589.34
2023-08-17T23:25:58.699Z,97587.00
2023-08-17T23:28:04.815Z,97592.34
2023-08-17T23:30:14.533Z,97596.41
2023-08-17T23:32:28.347Z,97598.44
2023-08-17T23:34:38.628Z,97597.91
2023-08-17T23:36:49.453Z,97595.84
2023-08-17T23:39:01.931Z,97589.75
2023-08-17T23:41:10.589Z,97589.94
2023-08-17T23:43:33.701Z,97593.09
2023-08-17T23:45:51.882Z,97597.34
2023-08-17T23:48:00.322Z,97599.72
2023-08-17T23:50:11.489Z,97594.84
2023-08-17T23:52:22.508Z,97588.72
2023-08-17T23:54:31.502Z,97588.69
2023-08-17T23:56:45.540Z,97583.97
2023-08-17T23:58:53.812Z,97578.75
